createdAt,value
2022-12-11T00:00:28.704Z,10.37
2022-12-11T00:02:56.698Z,10.00
2022-12-11T00:05:24.115Z,9.93
2022-12-11T00:07:50.959Z,10.77
2022-12-11T00:10:17.876Z,15.35
2022-12-11T00:12:44.577Z,14.30
2022-12-11T00:15:11.662Z,12.53
2022-12-11T00:17:38.831Z,12.60
2022-12-11T00:20:09.222Z,12.50
2022-12-11T00:22:35.943Z,12.10
2022-12-11T00:25:02.649Z,10.60
2022-12-11T00:27:29.641Z,12.63
2022-12-11T00:29:56.354Z,11.33
2022-12-11T00:32:23.032Z,10.63
2022-12-11T00:34:56.294Z,10.13
2022-12-11T00:37:23.602Z,10.60
2022-12-11T00:43:04.454Z,10.33
2022-12-11T00:45:31.234Z,11.93
2022-12-11T00:47:57.923Z,11.80
2022-12-11T00:50:24.633Z,12.07
2022-12-11T00:52:51.343Z,12.27
2022-12-11T00:55:18.363Z,11.57
2022-12-11T00:57:45.020Z,12.83
2022-12-11T01:00:12.899Z,11.50
2022-12-11T01:02:39.659Z,12.63
2022-12-11T01:05:06.829Z,11.20
2022-12-11T01:07:33.497Z,13.37
2022-12-11T01:10:18.737Z,12.13
2022-12-11T01:12:45.497Z,11.87
2022-12-11T01:15:12.562Z,11.03
2022-12-11T01:17:43.242Z,12.00
2022-12-11T01:20:10.273Z,10.70
2022-12-11T01:22:36.934Z,12.70
2022-12-11T01:25:04.183Z,12.27
2022-12-11T01:27:31.144Z,12.17
2022-12-11T01:29:57.836Z,11.90
2022-12-11T01:32:24.631Z,11.07
2022-12-11T01:34:51.408Z,11.73
2022-12-11T01:37:18.117Z,12.43
2022-12-11T01:39:44.747Z,12.27
2022-12-11T01:42:17.957Z,12.20
2022-12-11T01:44:47.141Z,13.83
2022-12-11T01:47:14.130Z,11.33
2022-12-11T01:49:41.934Z,12.77
2022-12-11T01:52:15.533Z,12.87
2022-12-11T01:54:45.781Z,14.27
2022-12-11T01:57:15.399Z,14.53
2022-12-11T01:59:46.502Z,12.33
2022-12-11T02:02:24.903Z,12.90
2022-12-11T02:04:51.738Z,14.27
2022-12-11T02:07:18.418Z,12.67
2022-12-11T02:09:47.690Z,13.37
2022-12-11T02:12:18.687Z,13.43
2022-12-11T02:14:45.318Z,11.43
2022-12-11T02:17:23.730Z,11.77
2022-12-11T02:20:15.442Z,11.47
2022-12-11T02:22:55.187Z,11.43
2022-12-11T02:25:33.784Z,11.73
2022-12-11T02:28:24.370Z,11.97
2022-12-11T02:30:57.238Z,11.70
2022-12-11T02:33:37.168Z,11.43
2022-12-11T02:36:05.513Z,11.73
2022-12-11T02:38:36.172Z,11.30
2022-12-11T02:41:05.667Z,11.20
2022-12-11T02:43:34.397Z,10.83
2022-12-11T02:46:05.826Z,11.40
2022-12-11T02:48:34.298Z,10.33
2022-12-11T02:51:01.897Z,10.97
2022-12-11T02:53:32.372Z,10.33
2022-12-11T02:56:24.591Z,10.90
2022-12-11T02:58:59.232Z,10.63
2022-12-11T03:01:27.441Z,9.97
2022-12-11T03:03:55.445Z,10.47
2022-12-11T03:06:26.826Z,10.70
2022-12-11T03:08:55.138Z,10.03
2022-12-11T03:11:21.928Z,10.87
2022-12-11T03:13:48.789Z,11.33
2022-12-11T03:16:32.451Z,10.17
2022-12-11T03:19:03.049Z,9.77
2022-12-11T03:21:40.441Z,9.87
2022-12-11T03:24:14.298Z,11.23
2022-12-11T03:26:45.504Z,10.50
2022-12-11T03:29:20.200Z,10.40
2022-12-11T03:32:03.527Z,8.83
2022-12-11T03:34:37.595Z,10.27
2022-12-11T03:37:06.381Z,9.13
2022-12-11T03:39:38.498Z,10.60
2022-12-11T03:42:08.332Z,10.90
2022-12-11T03:44:36.492Z,10.43
2022-12-11T03:47:06.547Z,10.13
2022-12-11T03:49:41.363Z,10.20
2022-12-11T03:52:11.626Z,8.87
2022-12-11T03:54:40.172Z,10.23
2022-12-11T03:57:10.000Z,9.37
2022-12-11T03:59:36.871Z,9.73
2022-12-11T04:02:11.257Z,10.00
2022-12-11T04:04:39.366Z,10.33
2022-12-11T04:07:06.708Z,11.40
2022-12-11T04:09:34.010Z,11.83
2022-12-11T04:12:01.037Z,9.80
2022-12-11T04:14:46.320Z,12.27
2022-12-11T04:17:32.974Z,10.60
2022-12-11T04:20:18.585Z,11.90
2022-12-11T04:23:03.991Z,10.87
2022-12-11T04:25:30.701Z,11.73
2022-12-11T04:27:57.428Z,11.43
2022-12-11T04:30:32.334Z,10.77
2022-12-11T04:33:01.095Z,10.07
2022-12-11T04:35:28.097Z,11.07
2022-12-11T04:37:54.842Z,11.47
2022-12-11T04:40:21.916Z,10.47
2022-12-11T04:42:48.780Z,11.00
2022-12-11T04:45:15.472Z,9.60
2022-12-11T04:47:42.591Z,10.73
2022-12-11T04:50:12.325Z,11.03
2022-12-11T04:52:39.177Z,12.03
2022-12-11T04:55:07.642Z,11.70
2022-12-11T04:57:34.996Z,10.13
2022-12-11T05:00:02.169Z,9.07
2022-12-11T05:02:28.991Z,10.73
2022-12-11T05:04:55.799Z,9.83
2022-12-11T05:07:22.490Z,11.27
2022-12-11T05:09:49.222Z,11.63
2022-12-11T05:12:15.859Z,9.93
2022-12-11T05:14:42.551Z,11.60
2022-12-11T05:17:09.297Z,10.07
2022-12-11T05:19:36.026Z,9.93
2022-12-11T05:22:02.683Z,10.63
2022-12-11T05:24:29.541Z,10.27
2022-12-11T05:26:56.246Z,10.90
2022-12-11T05:29:23.183Z,10.77
2022-12-11T05:31:50.130Z,9.03
2022-12-11T05:34:16.905Z,9.80
2022-12-11T05:36:43.558Z,10.27
2022-12-11T05:39:12.048Z,10.97
2022-12-11T05:41:38.970Z,11.10
2022-12-11T05:44:05.980Z,9.70
2022-12-11T05:46:32.800Z,10.30
2022-12-11T05:49:03.971Z,9.70
2022-12-11T05:51:31.646Z,10.00
2022-12-11T05:53:58.461Z,9.70
2022-12-11T05:56:33.534Z,9.57
2022-12-11T05:59:04.032Z,9.47
2022-12-11T06:01:34.908Z,9.27
2022-12-11T06:04:02.298Z,9.63
2022-12-11T06:06:29.370Z,9.90
2022-12-11T06:08:57.659Z,9.07
2022-12-11T06:11:26.124Z,11.07
2022-12-11T06:13:53.316Z,11.27
2022-12-11T06:16:21.024Z,9.00
2022-12-11T06:18:48.534Z,10.80
2022-12-11T06:21:27.921Z,10.37
2022-12-11T06:23:56.799Z,9.60
2022-12-11T06:26:24.170Z,9.93
2022-12-11T06:28:51.153Z,10.77
2022-12-11T06:31:19.043Z,10.93
2022-12-11T06:33:46.508Z,10.60
2022-12-11T06:36:16.363Z,10.27
2022-12-11T06:38:43.848Z,14.48
2022-12-11T06:41:11.518Z,12.27
2022-12-11T06:43:40.360Z,11.40
2022-12-11T06:46:13.051Z,11.33
2022-12-11T06:48:42.319Z,11.27
2022-12-11T06:51:12.399Z,10.57
2022-12-11T06:53:40.070Z,10.23
2022-12-11T06:56:13.063Z,10.13
2022-12-11T06:58:41.615Z,9.97
2022-12-11T07:01:26.286Z,9.97
2022-12-11T07:03:58.345Z,10.07
2022-12-11T07:06:26.972Z,10.40
2022-12-11T07:08:53.772Z,9.27
2022-12-11T07:11:21.760Z,8.27
2022-12-11T07:13:48.976Z,9.17
2022-12-11T07:16:17.018Z,10.73
2022-12-11T07:18:48.114Z,13.53
2022-12-11T07:21:15.181Z,11.00
2022-12-11T07:23:42.603Z,10.37
2022-12-11T07:26:16.149Z,9.13
2022-12-11T07:28:43.401Z,9.40
2022-12-11T07:31:13.498Z,9.80
2022-12-11T07:33:41.546Z,10.10
2022-12-11T07:36:11.903Z,8.90
2022-12-11T07:38:39.491Z,8.80
2022-12-11T07:41:09.235Z,8.27
2022-12-11T07:43:38.534Z,9.87
2022-12-11T07:46:08.213Z,9.00
2022-12-11T07:48:35.994Z,10.53
2022-12-11T07:51:11.296Z,9.77
2022-12-11T07:53:38.802Z,9.23
2022-12-11T07:56:05.896Z,11.50
2022-12-11T07:58:32.851Z,10.03
2022-12-11T08:00:59.657Z,11.07
2022-12-11T08:03:26.455Z,9.60
2022-12-11T08:05:53.543Z,10.17
2022-12-11T08:08:20.565Z,9.30
2022-12-11T08:10:47.399Z,10.03
2022-12-11T08:13:14.443Z,10.50
2022-12-11T08:15:41.709Z,11.80
2022-12-11T08:18:11.117Z,9.43
2022-12-11T08:20:39.296Z,10.93
2022-12-11T08:23:06.175Z,10.33
2022-12-11T08:25:33.061Z,10.80
2022-12-11T08:27:59.792Z,10.87
2022-12-11T08:30:26.512Z,13.17
2022-12-11T08:32:53.355Z,15.03
2022-12-11T08:35:20.114Z,13.40
2022-12-11T08:37:47.491Z,12.17
2022-12-11T08:40:14.471Z,13.13
2022-12-11T08:42:41.297Z,14.83
2022-12-11T08:45:12.065Z,17.00
2022-12-11T08:47:39.029Z,13.70
2022-12-11T08:50:06.204Z,12.90
2022-12-11T08:52:34.961Z,13.10
2022-12-11T08:55:01.791Z,13.17
2022-12-11T08:57:28.850Z,14.73
2022-12-11T08:59:55.533Z,14.50
2022-12-11T09:02:22.377Z,13.23
2022-12-11T09:04:49.131Z,15.07
2022-12-11T09:07:15.889Z,13.50
2022-12-11T09:09:49.705Z,14.53
2022-12-11T09:12:17.178Z,13.80
2022-12-11T09:14:44.118Z,14.83
2022-12-11T09:17:10.772Z,13.60
2022-12-11T09:19:37.584Z,13.97
2022-12-11T09:22:04.238Z,12.90
2022-12-11T09:24:31.020Z,14.20
2022-12-11T09:26:57.714Z,13.13
2022-12-11T09:29:24.503Z,19.77
2022-12-11T09:31:51.200Z,15.30
2022-12-11T09:34:17.965Z,13.40
2022-12-11T09:36:44.769Z,13.93
2022-12-11T09:39:13.042Z,13.40
2022-12-11T09:41:42.982Z,13.03
2022-12-11T09:44:15.507Z,14.10
2022-12-11T09:46:43.533Z,13.37
2022-12-11T09:49:41.290Z,13.17
2022-12-11T09:52:15.765Z,13.60
2022-12-11T09:54:50.538Z,13.97
2022-12-11T09:57:25.828Z,13.70
2022-12-11T10:00:05.556Z,15.87
2022-12-11T10:02:50.733Z,14.47
2022-12-11T10:05:20.240Z,18.33
2022-12-11T10:08:17.225Z,16.30
2022-12-11T10:10:54.208Z,13.43
2022-12-11T10:14:11.550Z,13.30
2022-12-11T10:16:46.645Z,11.47
2022-12-11T10:19:20.447Z,11.13
2022-12-11T10:21:51.576Z,12.43
2022-12-11T10:25:05.652Z,11.30
2022-12-11T10:27:22.307Z,12.40
2022-12-11T10:33:07.855Z,12.60
2022-12-11T10:38:45.215Z,11.60
2022-12-11T10:41:17.027Z,11.43
2022-12-11T10:43:46.353Z,12.13
2022-12-11T10:46:20.470Z,12.13
2022-12-11T10:48:54.676Z,13.07
2022-12-11T10:51:24.275Z,11.13
2022-12-11T10:54:02.627Z,11.63
2022-12-11T10:56:35.127Z,11.83
2022-12-11T10:59:02.325Z,11.57
2022-12-11T11:01:34.865Z,12.37
2022-12-11T11:04:15.326Z,10.73
2022-12-11T11:06:47.207Z,11.47
2022-12-11T11:09:30.612Z,11.87
2022-12-11T11:11:57.504Z,12.27
2022-12-11T11:14:24.237Z,11.93
2022-12-11T11:16:58.419Z,12.63
2022-12-11T11:19:29.498Z,12.03
2022-12-11T11:22:04.969Z,12.03
2022-12-11T11:24:43.437Z,13.43
2022-12-11T11:27:28.552Z,11.60
2022-12-11T11:29:59.172Z,12.70
2022-12-11T11:32:39.021Z,12.30
2022-12-11T11:35:17.512Z,12.20
2022-12-11T11:38:09.589Z,11.93
2022-12-11T11:41:04.796Z,10.80
2022-12-11T11:43:43.271Z,11.80
2022-12-11T11:46:12.964Z,11.33
2022-12-11T11:48:48.623Z,10.93
2022-12-11T11:51:55.530Z,11.20
2022-12-11T11:54:33.733Z,10.17
2022-12-11T11:57:11.575Z,9.90
2022-12-11T11:59:49.927Z,18.20
2022-12-11T12:02:18.545Z,12.63
2022-12-11T12:04:51.572Z,15.70
2022-12-11T12:07:18.464Z,14.47
2022-12-11T12:09:57.306Z,14.47
2022-12-11T12:13:03.418Z,11.40
2022-12-11T12:15:57.709Z,12.30
2022-12-11T12:18:45.498Z,11.57
2022-12-11T12:21:33.827Z,12.63
2022-12-11T12:24:12.286Z,11.10
2022-12-11T12:26:47.647Z,11.03
2022-12-11T12:29:17.623Z,11.93
2022-12-11T12:32:00.920Z,11.67
2022-12-11T12:34:54.264Z,11.53
2022-12-11T12:37:30.179Z,10.30
2022-12-11T12:40:02.205Z,10.47
2022-12-11T12:42:40.666Z,10.73
2022-12-11T12:45:07.354Z,10.83
2022-12-11T12:47:36.017Z,10.40
2022-12-11T12:50:03.918Z,10.97
2022-12-11T12:52:39.760Z,12.17
2022-12-11T12:55:28.808Z,13.20
2022-12-11T12:58:00.668Z,11.73
2022-12-11T13:00:38.692Z,11.77
2022-12-11T13:03:17.181Z,10.57
2022-12-11T13:05:55.466Z,10.70
2022-12-11T13:08:34.791Z,11.30
2022-12-11T13:11:06.056Z,11.27
2022-12-11T13:13:39.944Z,11.20
2022-12-11T13:16:15.851Z,11.97
2022-12-11T13:18:45.813Z,11.57
2022-12-11T13:21:35.901Z,11.63
2022-12-11T13:24:25.658Z,11.93
2022-12-11T13:26:52.435Z,12.37
2022-12-11T13:29:45.662Z,11.87
2022-12-11T13:32:18.708Z,11.60
2022-12-11T13:34:55.556Z,10.53
2022-12-11T13:37:47.499Z,10.70
2022-12-11T13:40:25.915Z,11.07
2022-12-11T13:43:15.951Z,14.97
2022-12-11T13:45:42.693Z,17.03
2022-12-11T13:48:29.775Z,14.77
2022-12-11T13:50:58.240Z,13.00
2022-12-11T13:53:25.424Z,12.73
2022-12-11T13:56:05.790Z,12.67
2022-12-11T13:58:39.129Z,13.33
2022-12-11T14:01:18.893Z,13.07
2022-12-11T14:03:58.162Z,12.23
2022-12-11T14:06:28.056Z,11.77
2022-12-11T14:08:59.029Z,13.50
2022-12-11T14:11:36.313Z,13.00
2022-12-11T14:14:06.765Z,12.87
2022-12-11T14:16:33.968Z,13.37
2022-12-11T14:19:08.615Z,14.73
2022-12-11T14:21:37.462Z,13.27
2022-12-11T14:24:06.641Z,12.50
2022-12-11T14:26:35.071Z,12.63
2022-12-11T14:29:02.988Z,11.97
2022-12-11T14:31:31.724Z,12.50
2022-12-11T14:34:06.845Z,11.20
2022-12-11T14:36:36.055Z,11.77
2022-12-11T14:39:07.682Z,11.63
2022-12-11T14:42:03.045Z,11.80
2022-12-11T14:44:33.576Z,10.73
2022-12-11T14:47:23.532Z,11.50
2022-12-11T14:50:07.913Z,11.00
2022-12-11T14:52:42.471Z,11.30
2022-12-11T14:55:24.544Z,11.20
2022-12-11T14:57:57.189Z,11.37
2022-12-11T15:00:27.568Z,11.97
2022-12-11T15:03:06.764Z,11.10
2022-12-11T15:05:40.651Z,11.67
2022-12-11T15:08:10.843Z,11.80
2022-12-11T15:10:41.545Z,10.37
2022-12-11T15:13:09.440Z,11.50
2022-12-11T15:15:46.656Z,10.87
2022-12-11T15:18:21.693Z,10.70
2022-12-11T15:20:58.346Z,11.20
2022-12-11T15:23:25.434Z,11.57
2022-12-11T15:25:58.110Z,12.50
2022-12-11T15:28:35.899Z,12.47
2022-12-11T15:31:06.545Z,10.73
2022-12-11T15:33:34.708Z,11.00
2022-12-11T15:36:06.865Z,10.00
2022-12-11T15:38:41.200Z,10.77
2022-12-11T15:41:17.128Z,10.53
2022-12-11T15:43:44.875Z,10.50
2022-12-11T15:46:11.672Z,11.03
2022-12-11T15:48:38.500Z,12.00
2022-12-11T15:51:05.498Z,11.77
2022-12-11T15:53:32.244Z,11.13
2022-12-11T15:55:59.576Z,11.47
2022-12-11T15:58:27.400Z,11.80
2022-12-11T16:00:54.377Z,10.23
2022-12-11T16:03:22.775Z,10.43
2022-12-11T16:05:51.436Z,9.80
2022-12-11T16:08:21.344Z,9.83
2022-12-11T16:10:48.767Z,11.20
2022-12-11T16:13:15.484Z,10.17
2022-12-11T16:15:45.552Z,11.47
2022-12-11T16:18:15.751Z,11.07
2022-12-11T16:20:44.611Z,11.47
2022-12-11T16:23:12.938Z,11.77
2022-12-11T16:25:41.904Z,12.20
2022-12-11T16:28:11.060Z,13.17
2022-12-11T16:30:38.383Z,12.80
2022-12-11T16:33:12.917Z,17.23
2022-12-11T16:35:42.488Z,11.50
2022-12-11T16:38:10.263Z,12.63
2022-12-11T16:40:38.254Z,10.27
2022-12-11T16:43:05.427Z,12.37
2022-12-11T16:45:32.633Z,12.60
2022-12-11T16:48:05.282Z,12.20
2022-12-11T16:50:32.468Z,12.53
2022-12-11T16:52:59.399Z,12.23
2022-12-11T16:55:26.524Z,12.43
2022-12-11T16:57:53.508Z,12.30
2022-12-11T17:00:21.123Z,12.90
2022-12-11T17:02:48.529Z,15.17
2022-12-11T17:05:15.481Z,12.73
2022-12-11T17:07:42.258Z,12.67
2022-12-11T17:10:09.173Z,12.73
2022-12-11T17:12:36.015Z,14.27
2022-12-11T17:15:03.673Z,12.77
2022-12-11T17:17:31.124Z,13.27
2022-12-11T17:19:57.998Z,16.70
2022-12-11T17:22:25.269Z,15.03
2022-12-11T17:24:52.185Z,16.27
2022-12-11T17:27:20.110Z,16.33
2022-12-11T17:29:49.600Z,17.63
2022-12-11T17:32:17.664Z,16.57
2022-12-11T17:34:45.653Z,17.93
2022-12-11T17:37:12.408Z,16.60
2022-12-11T17:39:39.157Z,18.70
2022-12-11T17:42:27.344Z,18.67
2022-12-11T17:44:55.637Z,18.50
2022-12-11T17:47:22.798Z,17.80
2022-12-11T17:49:49.595Z,17.93
2022-12-11T17:52:16.581Z,16.87
2022-12-11T17:54:43.646Z,16.83
2022-12-11T17:57:10.356Z,16.17
2022-12-11T17:59:37.870Z,14.40
2022-12-11T18:02:04.671Z,16.23
2022-12-11T18:04:31.519Z,15.27
2022-12-11T18:06:58.859Z,15.33
2022-12-11T18:09:25.718Z,16.87
2022-12-11T18:11:53.017Z,18.43
2022-12-11T18:14:19.732Z,16.33
2022-12-11T18:16:46.398Z,16.43
2022-12-11T18:19:13.940Z,16.20
2022-12-11T18:21:45.648Z,15.67
2022-12-11T18:24:12.526Z,15.97
2022-12-11T18:26:42.069Z,15.20
2022-12-11T18:29:17.785Z,15.67
2022-12-11T18:31:44.884Z,14.50
2022-12-11T18:34:11.704Z,14.97
2022-12-11T18:36:40.734Z,14.20
2022-12-11T18:39:07.739Z,17.80
2022-12-11T18:41:36.386Z,15.63
2022-12-11T18:44:09.697Z,15.53
2022-12-11T18:46:37.519Z,15.67
2022-12-11T18:49:04.276Z,17.50
2022-12-11T18:51:31.169Z,15.00
2022-12-11T18:53:58.057Z,13.73
2022-12-11T18:56:25.905Z,15.00
2022-12-11T18:58:52.698Z,16.73
2022-12-11T19:01:24.687Z,16.53
2022-12-11T19:03:58.831Z,15.37
2022-12-11T19:06:30.386Z,16.13
2022-12-11T19:08:58.204Z,15.90
2022-12-11T19:11:27.426Z,15.30
2022-12-11T19:13:58.639Z,14.83
2022-12-11T19:16:29.842Z,13.67
2022-12-11T19:19:02.133Z,13.60
2022-12-11T19:21:28.893Z,14.03
2022-12-11T19:23:55.712Z,13.57
2022-12-11T19:26:24.152Z,14.10
2022-12-11T19:28:51.554Z,14.30
2022-12-11T19:31:22.098Z,15.03
2022-12-11T19:33:49.606Z,13.87
2022-12-11T19:36:19.024Z,13.20
2022-12-11T19:38:46.280Z,14.30
2022-12-11T19:41:21.712Z,15.07
2022-12-11T19:43:49.731Z,12.83
2022-12-11T19:46:18.043Z,14.47
2022-12-11T19:48:45.180Z,13.57
2022-12-11T19:51:17.497Z,16.70
2022-12-11T19:53:45.247Z,13.20
2022-12-11T19:56:13.183Z,16.37
2022-12-11T19:58:41.784Z,14.33
2022-12-11T20:01:09.841Z,14.80
2022-12-11T20:03:36.869Z,17.07
2022-12-11T20:06:08.549Z,16.47
2022-12-11T20:08:44.646Z,16.33
2022-12-11T20:11:17.996Z,16.47
2022-12-11T20:13:47.130Z,15.70
2022-12-11T20:16:14.536Z,16.13
2022-12-11T20:18:41.862Z,16.20
2022-12-11T20:21:11.884Z,19.20
2022-12-11T20:23:38.834Z,21.27
2022-12-11T20:26:19.810Z,24.90
2022-12-11T20:28:50.119Z,19.83
2022-12-11T20:31:20.685Z,18.20
2022-12-11T20:33:49.238Z,19.77
2022-12-11T20:36:17.454Z,17.40
2022-12-11T20:38:44.277Z,18.53
2022-12-11T20:41:17.390Z,18.00
2022-12-11T20:43:45.539Z,19.00
2022-12-11T20:46:15.493Z,19.73
2022-12-11T20:48:43.647Z,18.50
2022-12-11T20:51:12.816Z,19.03
2022-12-11T20:53:40.506Z,18.30
2022-12-11T20:56:16.599Z,18.00
2022-12-11T20:58:44.360Z,20.10
2022-12-11T21:01:22.965Z,20.10
2022-12-11T21:03:49.983Z,19.07
2022-12-11T21:06:32.735Z,19.70
2022-12-11T21:09:06.573Z,19.83
2022-12-11T21:11:33.407Z,19.20
2022-12-11T21:14:00.255Z,18.57
2022-12-11T21:16:27.691Z,19.97
2022-12-11T21:18:58.807Z,20.67
2022-12-11T21:21:25.750Z,20.53
2022-12-11T21:23:52.722Z,20.30
2022-12-11T21:26:19.961Z,21.77
2022-12-11T21:28:46.828Z,20.97
2022-12-11T21:31:17.163Z,19.73
2022-12-11T21:33:44.468Z,18.07
2022-12-11T21:36:13.170Z,19.83
2022-12-11T21:38:41.729Z,22.53
2022-12-11T21:41:15.807Z,21.37
2022-12-11T21:44:14.633Z,23.63
2022-12-11T21:46:30.851Z,23.27
2022-12-11T21:48:57.626Z,24.03
2022-12-11T21:51:34.083Z,21.37
2022-12-11T21:54:05.162Z,22.23
2022-12-11T21:56:32.249Z,20.50
2022-12-11T21:58:58.982Z,22.40
2022-12-11T22:01:31.473Z,21.03
2022-12-11T22:03:59.419Z,20.40
2022-12-11T22:06:26.100Z,20.30
2022-12-11T22:08:52.969Z,22.00
2022-12-11T22:11:23.605Z,19.27
2022-12-11T22:13:50.364Z,19.87
2022-12-11T22:16:17.402Z,20.63
2022-12-11T22:18:44.144Z,21.90
2022-12-11T22:21:11.266Z,20.57
2022-12-11T22:23:42.152Z,20.83
2022-12-11T22:26:10.022Z,21.23
2022-12-11T22:28:36.701Z,21.57
2022-12-11T22:31:03.564Z,18.87
2022-12-11T22:33:30.302Z,21.63
2022-12-11T22:35:58.321Z,20.83
2022-12-11T22:38:25.778Z,20.33
2022-12-11T22:40:53.810Z,19.47
2022-12-11T22:43:20.841Z,20.07
2022-12-11T22:45:47.830Z,19.60
2022-12-11T22:48:15.134Z,19.83
2022-12-11T22:50:42.048Z,18.90
2022-12-11T22:53:09.247Z,19.60
2022-12-11T22:55:39.125Z,19.80
2022-12-11T22:58:06.840Z,20.10
2022-12-11T23:00:33.826Z,19.47
2022-12-11T23:03:00.845Z,19.37
2022-12-11T23:05:27.862Z,17.67
2022-12-11T23:07:54.682Z,19.40
2022-12-11T23:10:21.611Z,18.50
2022-12-11T23:12:48.300Z,19.30
2022-12-11T23:15:15.276Z,19.00
2022-12-11T23:17:42.056Z,18.43
2022-12-11T23:20:09.535Z,19.30
2022-12-11T23:22:36.373Z,19.77
2022-12-11T23:25:03.326Z,19.23
2022-12-11T23:27:30.025Z,17.67
2022-12-11T23:29:56.670Z,18.27
2022-12-11T23:32:23.327Z,18.20
2022-12-11T23:34:49.988Z,15.30
2022-12-11T23:37:16.970Z,17.97
2022-12-11T23:39:43.830Z,17.67
2022-12-11T23:42:10.547Z,18.13
2022-12-11T23:44:37.327Z,17.67
2022-12-11T23:47:04.090Z,18.47
2022-12-11T23:49:30.954Z,18.13
2022-12-11T23:51:57.603Z,17.93
2022-12-11T23:54:24.520Z,16.57
2022-12-11T23:56:51.301Z,15.87
2022-12-11T23:59:18.027Z,14.97
